createdAt,value
2022-10-22T00:01:47.076Z,1.57
2022-10-22T00:04:15.695Z,1.50
2022-10-22T00:06:45.135Z,1.33
2022-10-22T00:09:13.873Z,1.37
2022-10-22T00:11:43.120Z,1.20
2022-10-22T00:14:12.135Z,1.33
2022-10-22T00:16:40.781Z,0.90
2022-10-22T00:19:11.169Z,0.83
2022-10-22T00:21:39.788Z,1.03
2022-10-22T00:24:08.568Z,1.00
2022-10-22T00:26:37.131Z,1.70
2022-10-22T00:29:06.005Z,1.20
2022-10-22T00:31:34.611Z,1.00
2022-10-22T00:34:03.667Z,1.27
2022-10-22T00:36:33.639Z,1.20
2022-10-22T00:39:02.313Z,1.20
2022-10-22T00:41:30.916Z,1.53
2022-10-22T00:44:01.765Z,1.00
2022-10-22T00:46:30.880Z,0.90
2022-10-22T00:49:00.626Z,1.10
2022-10-22T00:51:31.451Z,1.30
2022-10-22T00:54:05.049Z,1.17
2022-10-22T00:56:34.287Z,1.07
2022-10-22T00:59:03.426Z,1.17
2022-10-22T01:01:33.088Z,1.07
2022-10-22T01:04:01.908Z,1.00
2022-10-22T01:06:32.692Z,1.17
2022-10-22T01:09:10.960Z,0.90
2022-10-22T01:11:50.958Z,1.10
2022-10-22T01:14:24.120Z,1.10
2022-10-22T01:16:56.870Z,1.00
2022-10-22T01:19:41.901Z,1.10
2022-10-22T01:22:16.903Z,1.20
2022-10-22T01:24:54.803Z,1.40
2022-10-22T01:27:33.402Z,1.20
2022-10-22T01:30:05.760Z,1.20
2022-10-22T01:32:38.033Z,1.20
2022-10-22T01:35:09.852Z,1.10
2022-10-22T01:37:42.929Z,1.40
2022-10-22T01:40:12.269Z,1.30
2022-10-22T01:42:40.825Z,1.20
2022-10-22T01:45:15.268Z,1.30
2022-10-22T01:47:49.667Z,1.10
2022-10-22T01:50:29.023Z,1.17
2022-10-22T01:53:05.755Z,0.90
2022-10-22T01:55:41.070Z,1.00
2022-10-22T01:58:19.583Z,1.23
2022-10-22T02:01:00.828Z,1.50
2022-10-22T02:03:33.245Z,1.00
2022-10-22T02:06:05.647Z,0.77
2022-10-22T02:08:36.527Z,1.07
2022-10-22T02:11:06.251Z,1.10
2022-10-22T02:13:38.506Z,1.00
2022-10-22T02:16:11.043Z,0.87
2022-10-22T02:18:41.736Z,1.03
2022-10-22T02:21:10.640Z,1.20
2022-10-22T02:23:39.727Z,1.10
2022-10-22T02:26:12.826Z,0.90
2022-10-22T02:28:46.611Z,1.30
2022-10-22T02:31:20.367Z,0.80
2022-10-22T02:33:51.403Z,0.83
2022-10-22T02:36:20.400Z,0.90
2022-10-22T02:38:50.928Z,0.90
2022-10-22T02:41:19.805Z,1.00
2022-10-22T02:43:51.457Z,0.80
2022-10-22T02:46:21.545Z,0.70
2022-10-22T02:48:50.117Z,1.30
2022-10-22T02:51:18.677Z,0.80
2022-10-22T02:53:47.257Z,1.07
2022-10-22T02:56:15.733Z,1.00
2022-10-22T02:58:44.285Z,1.00
2022-10-22T03:01:15.386Z,1.00
2022-10-22T03:03:46.244Z,1.00
2022-10-22T03:06:15.151Z,0.93
2022-10-22T03:08:44.530Z,1.30
2022-10-22T03:11:13.132Z,0.80
2022-10-22T03:13:41.738Z,0.83
2022-10-22T03:16:10.350Z,1.00
2022-10-22T03:18:38.913Z,1.33
2022-10-22T03:21:11.596Z,0.93
2022-10-22T03:23:41.162Z,1.10
2022-10-22T03:26:10.278Z,5.73
2022-10-22T03:28:39.454Z,1.63
2022-10-22T03:31:08.077Z,2.50
2022-10-22T03:33:36.633Z,1.27
2022-10-22T03:36:05.725Z,1.13
2022-10-22T03:38:36.332Z,1.00
2022-10-22T03:41:05.052Z,0.87
2022-10-22T03:43:35.194Z,1.40
2022-10-22T03:46:03.776Z,1.00
2022-10-22T03:48:32.333Z,0.90
2022-10-22T03:51:00.937Z,0.70
2022-10-22T03:53:29.530Z,1.10
2022-10-22T03:55:59.483Z,0.80
2022-10-22T03:58:28.052Z,0.90
2022-10-22T04:00:56.632Z,0.93
2022-10-22T04:03:25.308Z,0.80
2022-10-22T04:05:53.899Z,1.10
2022-10-22T04:08:22.805Z,0.97
2022-10-22T04:10:54.522Z,0.90
2022-10-22T04:13:24.507Z,0.80
2022-10-22T04:15:53.441Z,0.80
2022-10-22T04:18:22.828Z,0.93
2022-10-22T04:20:53.180Z,0.77
2022-10-22T04:23:21.934Z,1.30
2022-10-22T04:25:50.495Z,1.10
2022-10-22T04:28:19.055Z,1.20
2022-10-22T04:30:49.003Z,0.97
2022-10-22T04:33:17.594Z,1.03
2022-10-22T04:35:46.215Z,1.07
2022-10-22T04:38:14.909Z,1.10
2022-10-22T04:40:43.517Z,0.80
2022-10-22T04:43:12.100Z,0.90
2022-10-22T04:45:40.709Z,1.10
2022-10-22T04:48:10.886Z,1.17
2022-10-22T04:50:39.437Z,0.80
2022-10-22T04:53:08.002Z,0.93
2022-10-22T04:55:36.666Z,1.20
2022-10-22T04:58:05.451Z,1.17
2022-10-22T05:00:34.052Z,1.00
2022-10-22T05:03:02.617Z,0.90
2022-10-22T05:05:33.511Z,1.00
2022-10-22T05:08:02.085Z,0.97
2022-10-22T05:10:30.738Z,1.03
2022-10-22T05:12:59.298Z,1.53
2022-10-22T05:15:27.851Z,1.40
2022-10-22T05:17:56.452Z,2.10
2022-10-22T05:20:25.012Z,2.03
2022-10-22T05:22:54.912Z,2.00
2022-10-22T05:25:23.461Z,1.10
2022-10-22T05:27:52.020Z,0.90
2022-10-22T05:30:20.561Z,1.40
2022-10-22T05:32:49.145Z,1.00
2022-10-22T05:35:17.717Z,1.80
2022-10-22T05:37:46.372Z,2.20
2022-10-22T05:40:26.521Z,1.17
2022-10-22T05:42:55.638Z,1.50
2022-10-22T05:45:24.204Z,1.17
2022-10-22T05:47:52.749Z,1.73
2022-10-22T05:50:21.369Z,1.37
2022-10-22T05:52:49.925Z,1.47
2022-10-22T05:55:19.861Z,1.90
2022-10-22T05:57:50.355Z,1.20
2022-10-22T06:00:19.121Z,1.83
2022-10-22T06:02:50.855Z,1.23
2022-10-22T06:05:19.412Z,1.70
2022-10-22T06:07:48.099Z,2.33
2022-10-22T06:10:18.687Z,1.90
2022-10-22T06:12:49.545Z,1.20
2022-10-22T06:15:20.133Z,2.90
2022-10-22T06:17:49.080Z,2.30
2022-10-22T06:20:17.894Z,1.90
2022-10-22T06:22:48.151Z,1.93
2022-10-22T06:25:16.970Z,1.67
2022-10-22T06:27:45.576Z,1.57
2022-10-22T06:30:15.804Z,1.63
2022-10-22T06:32:44.494Z,1.70
2022-10-22T06:35:13.121Z,1.40
2022-10-22T06:37:41.998Z,1.70
2022-10-22T06:40:11.983Z,1.47
2022-10-22T06:42:40.763Z,1.70
2022-10-22T06:45:11.218Z,1.80
2022-10-22T06:47:41.431Z,1.70
2022-10-22T06:50:10.860Z,1.40
2022-10-22T06:52:39.435Z,1.60
2022-10-22T06:55:08.389Z,1.87
2022-10-22T06:57:38.197Z,1.63
2022-10-22T07:00:08.455Z,1.90
2022-10-22T07:02:37.049Z,6.83
2022-10-22T07:05:08.242Z,3.00
2022-10-22T07:07:37.202Z,2.40
2022-10-22T07:10:07.352Z,3.13
2022-10-22T07:12:35.964Z,2.20
2022-10-22T07:15:04.955Z,2.20
2022-10-22T07:17:33.562Z,2.00
2022-10-22T07:20:02.173Z,2.07
2022-10-22T07:22:32.735Z,2.30
2022-10-22T07:25:05.237Z,1.80
2022-10-22T07:27:36.010Z,2.40
2022-10-22T07:30:05.236Z,2.23
2022-10-22T07:32:33.840Z,1.93
2022-10-22T07:35:02.434Z,2.60
2022-10-22T07:37:32.401Z,2.40
2022-10-22T07:40:03.764Z,2.77
2022-10-22T07:42:32.887Z,2.70
2022-10-22T07:45:01.458Z,2.27
2022-10-22T07:47:30.037Z,2.57
2022-10-22T07:49:58.596Z,2.70
2022-10-22T07:52:27.184Z,3.50
2022-10-22T07:54:57.139Z,3.40
2022-10-22T07:57:25.857Z,3.73
2022-10-22T07:59:56.404Z,3.30
2022-10-22T08:02:25.007Z,2.60
2022-10-22T08:04:53.567Z,3.00
2022-10-22T08:07:22.165Z,2.73
2022-10-22T08:09:50.830Z,3.43
2022-10-22T08:12:21.608Z,2.77
2022-10-22T08:14:50.180Z,2.77
2022-10-22T08:17:18.791Z,2.60
2022-10-22T08:19:47.407Z,2.30
2022-10-22T08:22:15.973Z,1.80
2022-10-22T08:24:44.623Z,2.10
2022-10-22T08:27:13.483Z,2.57
2022-10-22T08:29:43.445Z,5.00
2022-10-22T08:32:12.341Z,1.53
2022-10-22T08:34:41.167Z,1.47
2022-10-22T08:37:14.101Z,1.30
2022-10-22T08:39:42.729Z,1.47
2022-10-22T08:42:29.623Z,1.10
2022-10-22T08:45:05.217Z,1.30
2022-10-22T08:47:45.443Z,1.07
2022-10-22T08:50:17.915Z,1.70
2022-10-22T08:52:50.316Z,1.63
2022-10-22T08:55:19.049Z,1.10
2022-10-22T08:57:52.732Z,1.40
2022-10-22T09:00:25.953Z,1.20
2022-10-22T09:03:03.817Z,1.27
2022-10-22T09:05:42.226Z,1.50
2022-10-22T09:08:11.987Z,1.30
2022-10-22T09:10:44.773Z,1.27
2022-10-22T09:13:16.064Z,1.60
2022-10-22T09:15:47.355Z,1.33
2022-10-22T09:18:25.401Z,1.40
2022-10-22T09:20:57.073Z,1.40
2022-10-22T09:23:32.069Z,1.33
2022-10-22T09:26:01.284Z,1.20
2022-10-22T09:28:29.877Z,1.80
2022-10-22T09:30:59.799Z,1.30
2022-10-22T09:33:30.784Z,6.77
2022-10-22T09:36:03.401Z,1.20
2022-10-22T09:38:34.627Z,1.47
2022-10-22T09:41:03.733Z,1.00
2022-10-22T09:43:32.960Z,0.90
2022-10-22T09:46:04.562Z,1.00
2022-10-22T09:48:35.230Z,1.00
2022-10-22T09:51:07.440Z,1.00
2022-10-22T09:53:42.557Z,0.97
2022-10-22T09:56:20.018Z,1.33
2022-10-22T09:58:51.837Z,1.00
2022-10-22T10:01:24.089Z,1.00
2022-10-22T10:03:52.656Z,1.30
2022-10-22T10:06:22.755Z,0.90
2022-10-22T10:08:51.514Z,0.83
2022-10-22T10:11:29.083Z,0.70
2022-10-22T10:14:09.368Z,1.10
2022-10-22T10:16:46.467Z,1.07
2022-10-22T10:19:29.180Z,1.00
2022-10-22T10:22:05.497Z,1.00
2022-10-22T10:24:46.509Z,0.80
2022-10-22T10:27:21.864Z,1.00
2022-10-22T10:29:55.169Z,1.00
2022-10-22T10:32:35.308Z,1.10
2022-10-22T10:35:12.517Z,0.90
2022-10-22T10:37:44.985Z,0.70
2022-10-22T10:40:22.696Z,0.80
2022-10-22T10:42:54.626Z,0.90
2022-10-22T10:45:27.643Z,0.83
2022-10-22T10:48:11.541Z,1.00
2022-10-22T10:50:45.901Z,1.10
2022-10-22T10:53:19.111Z,1.10
2022-10-22T10:55:56.006Z,1.40
2022-10-22T10:58:31.772Z,1.37
2022-10-22T11:01:04.168Z,1.00
2022-10-22T11:03:42.225Z,1.17
2022-10-22T11:06:12.518Z,0.83
2022-10-22T11:08:45.419Z,1.10
2022-10-22T11:11:17.862Z,0.90
2022-10-22T11:13:50.735Z,0.80
2022-10-22T11:16:22.685Z,0.93
2022-10-22T11:18:56.192Z,1.17
2022-10-22T11:21:29.606Z,1.00
2022-10-22T11:24:03.693Z,0.80
2022-10-22T11:26:38.757Z,0.93
2022-10-22T11:29:12.288Z,1.07
2022-10-22T11:31:41.917Z,1.30
2022-10-22T11:34:33.165Z,0.80
2022-10-22T11:37:02.581Z,1.00
2022-10-22T11:39:40.260Z,0.93
2022-10-22T11:42:12.357Z,0.90
2022-10-22T11:45:00.530Z,0.90
2022-10-22T11:47:31.133Z,1.10
2022-10-22T11:50:17.988Z,1.03
2022-10-22T11:53:01.386Z,0.80
2022-10-22T11:55:36.387Z,1.00
2022-10-22T11:58:28.163Z,0.80
2022-10-22T12:00:57.853Z,1.00
2022-10-22T12:03:41.067Z,0.97
2022-10-22T12:06:20.889Z,0.83
2022-10-22T12:08:55.133Z,0.90
2022-10-22T12:11:26.351Z,0.93
2022-10-22T12:14:03.492Z,1.10
2022-10-22T12:16:55.181Z,0.97
2022-10-22T12:19:31.067Z,1.27
2022-10-22T12:22:04.210Z,1.10
2022-10-22T12:24:36.548Z,1.20
2022-10-22T12:27:08.214Z,1.00
2022-10-22T12:29:37.320Z,1.50
2022-10-22T12:32:06.340Z,1.20
2022-10-22T12:34:34.921Z,0.80
2022-10-22T12:37:05.687Z,0.93
2022-10-22T12:39:35.398Z,0.70
2022-10-22T12:42:06.051Z,1.00
2022-10-22T12:44:34.646Z,0.80
2022-10-22T12:47:03.262Z,0.90
2022-10-22T12:49:36.683Z,0.90
2022-10-22T12:52:12.046Z,1.10
2022-10-22T12:54:42.793Z,1.03
2022-10-22T12:57:14.883Z,1.00
2022-10-22T12:59:48.774Z,1.10
2022-10-22T13:02:22.439Z,0.90
2022-10-22T13:05:22.451Z,1.27
2022-10-22T13:07:54.722Z,0.73
2022-10-22T13:10:26.464Z,0.80
2022-10-22T13:12:57.027Z,1.30
2022-10-22T13:15:36.828Z,1.20
2022-10-22T13:18:08.473Z,1.10
2022-10-22T13:20:38.452Z,1.10
2022-10-22T13:23:20.237Z,0.93
2022-10-22T13:25:58.718Z,1.30
2022-10-22T13:28:28.045Z,1.10
2022-10-22T13:30:58.828Z,0.80
2022-10-22T13:33:30.901Z,0.80
2022-10-22T13:35:59.493Z,0.80
2022-10-22T13:38:30.284Z,1.03
2022-10-22T13:40:59.360Z,0.90
2022-10-22T13:43:28.072Z,1.07
2022-10-22T13:45:59.262Z,0.90
2022-10-22T13:48:29.405Z,1.07
2022-10-22T13:50:58.037Z,1.40
2022-10-22T13:53:29.486Z,0.90
2022-10-22T13:55:58.326Z,0.80
2022-10-22T13:58:26.891Z,1.03
2022-10-22T14:00:57.646Z,1.10
2022-10-22T14:03:28.301Z,1.10
2022-10-22T14:05:57.199Z,1.07
2022-10-22T14:08:26.717Z,1.00
2022-10-22T14:10:56.693Z,0.93
2022-10-22T14:13:26.546Z,0.90
2022-10-22T14:15:55.194Z,0.90
2022-10-22T14:18:28.579Z,0.77
2022-10-22T14:20:59.843Z,0.90
2022-10-22T14:23:29.927Z,1.40
2022-10-22T14:26:00.546Z,0.90
2022-10-22T14:28:31.356Z,1.03
2022-10-22T14:31:00.184Z,0.80
2022-10-22T14:33:32.135Z,0.93
2022-10-22T14:36:01.223Z,1.00
2022-10-22T14:38:30.344Z,0.90
2022-10-22T14:41:00.706Z,0.90
2022-10-22T14:43:31.058Z,1.00
2022-10-22T14:45:59.690Z,1.00
2022-10-22T14:48:28.273Z,1.00
2022-10-22T14:50:56.829Z,0.90
2022-10-22T14:53:25.390Z,0.83
2022-10-22T14:55:57.537Z,1.07
2022-10-22T14:58:27.565Z,1.00
2022-10-22T15:00:56.195Z,0.77
2022-10-22T15:03:24.803Z,0.83
2022-10-22T15:05:55.716Z,1.30
2022-10-22T15:08:24.454Z,1.10
2022-10-22T15:10:59.983Z,0.97
2022-10-22T15:13:30.306Z,1.07
2022-10-22T15:15:59.773Z,1.53
2022-10-22T15:18:28.925Z,1.37
2022-10-22T15:20:59.020Z,1.30
2022-10-22T15:23:28.035Z,1.20
2022-10-22T15:25:56.741Z,1.10
2022-10-22T15:28:25.902Z,1.30
2022-10-22T15:30:57.238Z,1.80
2022-10-22T15:33:26.405Z,1.60
2022-10-22T15:35:55.104Z,1.10
2022-10-22T15:41:05.289Z,1.17
2022-10-22T15:43:34.607Z,1.17
2022-10-22T15:46:15.536Z,1.20
2022-10-22T15:48:44.285Z,1.80
2022-10-22T15:51:15.664Z,1.47
2022-10-22T15:53:44.994Z,1.80
2022-10-22T15:56:13.579Z,1.83
2022-10-22T15:58:42.185Z,2.30
2022-10-22T16:01:13.030Z,2.10
2022-10-22T16:03:43.966Z,2.13
2022-10-22T16:06:12.569Z,2.30
2022-10-22T16:08:41.230Z,2.50
2022-10-22T16:11:10.642Z,2.03
2022-10-22T16:13:39.216Z,1.87
2022-10-22T16:16:08.921Z,2.00
2022-10-22T16:18:37.512Z,1.70
2022-10-22T16:21:07.549Z,1.67
2022-10-22T16:23:36.113Z,2.07
2022-10-22T16:26:04.751Z,2.20
2022-10-22T16:31:06.021Z,2.77
2022-10-22T16:33:41.401Z,3.37
2022-10-22T16:36:16.462Z,3.30
2022-10-22T16:38:45.321Z,3.50
2022-10-22T16:41:15.328Z,3.10
2022-10-22T16:43:45.342Z,3.43
2022-10-22T16:46:13.977Z,4.17
2022-10-22T16:48:47.788Z,3.10
2022-10-22T16:51:19.659Z,3.90
2022-10-22T16:53:48.426Z,3.30
2022-10-22T16:56:18.034Z,3.53
2022-10-22T16:58:48.164Z,3.20
2022-10-22T17:01:18.286Z,3.37
2022-10-22T17:03:47.278Z,3.30
2022-10-22T17:06:17.280Z,3.87
2022-10-22T17:08:45.934Z,3.77
2022-10-22T17:11:17.550Z,3.77
2022-10-22T17:13:46.949Z,3.50
2022-10-22T17:16:17.032Z,3.50
2022-10-22T17:21:21.973Z,4.20
2022-10-22T17:23:55.432Z,4.53
2022-10-22T17:26:26.340Z,3.70
2022-10-22T17:28:55.173Z,3.60
2022-10-22T17:31:25.005Z,3.63
2022-10-22T17:33:55.051Z,2.70
2022-10-22T17:36:25.612Z,2.90
2022-10-22T17:38:55.912Z,3.20
2022-10-22T17:41:27.654Z,3.33
2022-10-22T17:43:56.729Z,3.40
2022-10-22T17:46:26.480Z,3.70
2022-10-22T17:48:56.459Z,3.70
2022-10-22T17:51:27.865Z,4.17
2022-10-22T17:53:56.519Z,4.20
2022-10-22T17:56:27.585Z,4.80
2022-10-22T17:58:56.693Z,4.80
2022-10-22T18:01:26.808Z,4.43
2022-10-22T18:03:56.501Z,4.67
2022-10-22T18:06:26.419Z,5.07
2022-10-22T18:08:55.045Z,5.90
2022-10-22T18:11:26.561Z,5.97
2022-10-22T18:13:56.743Z,6.30
2022-10-22T18:16:26.185Z,6.27
2022-10-22T18:18:55.706Z,9.10
2022-10-22T18:21:27.386Z,9.20
2022-10-22T18:23:56.576Z,7.97
2022-10-22T18:26:26.913Z,5.80
2022-10-22T18:28:56.114Z,6.67
2022-10-22T18:31:30.244Z,6.57
2022-10-22T18:33:58.844Z,6.50
2022-10-22T18:36:29.021Z,6.30
2022-10-22T18:38:59.631Z,6.60
2022-10-22T18:41:29.148Z,5.57
2022-10-22T18:43:59.192Z,6.20
2022-10-22T18:46:28.453Z,6.53
2022-10-22T18:48:58.382Z,6.40
2022-10-22T18:51:31.558Z,5.73
2022-10-22T18:54:22.269Z,4.80
2022-10-22T18:56:49.077Z,5.40
2022-10-22T18:59:20.704Z,5.00
2022-10-22T19:01:49.414Z,5.00
2022-10-22T19:04:17.997Z,5.63
2022-10-22T19:06:48.234Z,5.40
2022-10-22T19:09:17.155Z,4.90
2022-10-22T19:11:46.231Z,4.80
2022-10-22T19:14:19.400Z,5.70
2022-10-22T19:16:48.075Z,4.90
2022-10-22T19:19:19.064Z,5.40
2022-10-22T19:21:49.533Z,5.47
2022-10-22T19:24:19.791Z,5.20
2022-10-22T19:26:49.704Z,4.23
2022-10-22T19:29:19.706Z,5.33
2022-10-22T19:31:50.856Z,5.20
2022-10-22T19:34:20.048Z,6.07
2022-10-22T19:36:51.580Z,6.30
2022-10-22T19:39:20.768Z,5.80
2022-10-22T19:41:49.434Z,5.40
2022-10-22T19:44:19.693Z,5.60
2022-10-22T19:46:48.354Z,5.70
2022-10-22T19:49:19.098Z,6.10
2022-10-22T19:51:52.162Z,5.90
2022-10-22T19:54:20.965Z,6.27
2022-10-22T19:56:50.559Z,5.73
2022-10-22T19:59:20.578Z,5.50
2022-10-22T20:01:49.265Z,6.47
2022-10-22T20:04:19.196Z,6.53
2022-10-22T20:06:48.386Z,5.70
2022-10-22T20:09:18.414Z,5.20
2022-10-22T20:11:47.398Z,5.20
2022-10-22T20:14:16.051Z,6.43
2022-10-22T20:16:44.750Z,7.07
2022-10-22T20:19:16.062Z,5.60
2022-10-22T20:21:45.326Z,6.00
2022-10-22T20:24:14.019Z,6.70
2022-10-22T20:26:46.118Z,6.13
2022-10-22T20:29:15.561Z,6.33
2022-10-22T20:31:44.137Z,5.13
2022-10-22T20:34:12.874Z,3.90
2022-10-22T20:36:41.510Z,5.20
2022-10-22T20:39:13.078Z,4.87
2022-10-22T20:41:41.865Z,5.13
2022-10-22T20:44:14.405Z,4.87
2022-10-22T20:46:43.680Z,4.87
2022-10-22T20:49:15.032Z,4.50
2022-10-22T20:51:44.010Z,4.83
2022-10-22T20:54:13.001Z,5.13
2022-10-22T20:56:42.272Z,5.30
2022-10-22T20:59:12.772Z,5.50
2022-10-22T21:01:42.710Z,6.13
2022-10-22T21:04:11.921Z,4.30
2022-10-22T21:06:42.798Z,5.17
2022-10-22T21:09:12.506Z,6.50
2022-10-22T21:11:42.562Z,6.47
2022-10-22T21:14:14.698Z,6.20
2022-10-22T21:16:44.151Z,6.20
2022-10-22T21:19:13.021Z,5.13
2022-10-22T21:21:41.732Z,5.67
2022-10-22T21:24:10.435Z,5.70
2022-10-22T21:26:39.650Z,4.80
2022-10-22T21:29:08.446Z,4.53
2022-10-22T21:31:40.225Z,5.60
2022-10-22T21:34:08.816Z,5.80
2022-10-22T21:36:37.498Z,5.53
2022-10-22T21:39:06.644Z,5.50
2022-10-22T21:41:35.259Z,5.10
2022-10-22T21:44:03.982Z,5.40
2022-10-22T21:46:32.602Z,4.90
2022-10-22T21:49:03.609Z,4.87
2022-10-22T21:51:35.158Z,5.10
2022-10-22T21:54:03.771Z,4.43
2022-10-22T21:56:33.865Z,4.30
2022-10-22T21:59:03.290Z,4.20
2022-10-22T22:01:31.941Z,4.20
2022-10-22T22:04:02.474Z,4.60
2022-10-22T22:06:33.412Z,5.23
2022-10-22T22:09:03.431Z,4.77
2022-10-22T22:11:32.090Z,3.70
2022-10-22T22:14:00.726Z,4.83
2022-10-22T22:16:31.384Z,6.13
2022-10-22T22:19:05.840Z,4.53
2022-10-22T22:21:35.234Z,5.10
2022-10-22T22:24:04.089Z,4.10
2022-10-22T22:26:33.109Z,4.70
2022-10-22T22:29:01.788Z,4.10
2022-10-22T22:31:32.574Z,4.67
2022-10-22T22:34:03.710Z,5.03
2022-10-22T22:36:35.363Z,4.70
2022-10-22T22:39:04.865Z,3.73
2022-10-22T22:41:33.786Z,4.70
2022-10-22T22:44:02.489Z,4.90
2022-10-22T22:46:31.088Z,4.93
2022-10-22T22:48:59.667Z,5.20
2022-10-22T22:51:29.565Z,4.43
2022-10-22T22:53:58.203Z,5.10
2022-10-22T22:56:28.667Z,4.57
2022-10-22T22:58:57.542Z,5.00
2022-10-22T23:01:28.218Z,4.93
2022-10-22T23:03:58.537Z,4.83
2022-10-22T23:06:29.578Z,5.30
2022-10-22T23:08:58.829Z,5.47
2022-10-22T23:11:28.332Z,5.27
2022-10-22T23:13:58.380Z,5.27
2022-10-22T23:16:28.808Z,4.80
2022-10-22T23:18:57.953Z,5.03
2022-10-22T23:21:29.971Z,4.10
2022-10-22T23:24:00.676Z,5.33
2022-10-22T23:26:31.398Z,5.40
2022-10-22T23:29:01.587Z,5.10
2022-10-22T23:31:30.641Z,4.97
2022-10-22T23:33:59.258Z,4.30
2022-10-22T23:36:30.099Z,4.50
2022-10-22T23:38:58.645Z,5.00
2022-10-22T23:41:27.274Z,4.60
2022-10-22T23:43:55.851Z,4.70
2022-10-22T23:46:24.433Z,3.93
2022-10-22T23:48:53.674Z,4.80
2022-10-22T23:51:22.553Z,5.33
2022-10-22T23:53:57.128Z,5.37
2022-10-22T23:56:26.125Z,4.70
2022-10-22T23:58:55.180Z,4.93
